Time;durP1;ratioP1;P1;durP2;ratioP2;P2;SDS_P1;SDS_P2;PMS_P1;PMS_P2;Temp;Humidity;BMP_temperature;BMP_pressure;BME280_temperature;BME280_humidity;BME280_pressure;Samples;Min_cycle;Max_cycle;Signal;HPM_P1;HPM_P2
2023/07/06 00:02:18;;;;;;;;;;;;;;;;;;;;;
2023/07/06 00:04:46;;;;;;;24.42;19.10;;;;;;;-148.88;100.00;-17125.47;5047472;28;20072;-84
2023/07/06 00:07:21;;;;;;;23.05;20.15;;;;;;;-148.88;100.00;-17125.47;5023532;28;20034;-83
2023/07/06 00:09:58;;;;;;;25.23;21.17;;;;;;;-148.88;100.00;-17125.47;5021091;28;20108;-82
2023/07/06 00:12:50;;;;;;;25.67;21.48;;;;;;;-148.88;100.00;-17125.47;5018232;28;20088;-82
2023/07/06 00:15:27;;;;;;;26.27;22.38;;;;;;;-148.88;100.00;-17125.47;5019701;28;20033;-82
2023/07/06 00:18:04;;;;;;;26.88;22.73;;;;;;;-148.88;100.00;-17125.47;5024793;28;20028;-83
2023/07/06 00:20:37;;;;;;;25.90;21.67;;;;;;;-148.88;100.00;-17125.47;5024607;28;20029;-82
2023/07/06 00:23:08;;;;;;;25.85;20.98;;;;;;;-148.88;100.00;-17125.47;5023794;28;20395;-83
2023/07/06 00:25:51;;;;;;;25.75;20.63;;;;;;;-148.88;100.00;-17125.47;5022891;28;20029;-83
2023/07/06 00:28:34;;;;;;;23.98;20.02;;;;;;;-148.88;100.00;-17125.47;5044066;28;20025;-82
2023/07/06 00:31:10;;;;;;;22.55;18.95;;;;;;;-148.88;100.00;-17125.47;5025222;28;20032;-82
2023/07/06 00:33:48;;;;;;;20.85;18.08;;;;;;;-148.88;100.00;-17125.47;5042589;28;20021;-82
2023/07/06 00:37:08;;;;;;;19.63;16.95;;;;;;;-148.88;100.00;-17125.47;5025764;28;20377;-83
2023/07/06 00:39:36;;;;;;;17.92;15.07;;;;;;;-148.88;100.00;-17125.47;5042206;28;20369;-82
2023/07/06 00:42:18;;;;;;;17.95;16.05;;;;;;;-148.88;100.00;-17125.47;5024518;28;20022;-83
2023/07/06 00:44:49;;;;;;;16.50;14.65;;;;;;;-148.88;100.00;-17125.47;5025460;28;20025;-83
2023/07/06 00:47:18;;;;;;;17.08;13.85;;;;;;;-148.88;100.00;-17125.47;5024811;28;20033;-83
2023/07/06 00:49:50;;;;;;;15.35;13.70;;;;;;;-148.88;100.00;-17125.47;5021124;28;20028;-83
2023/07/06 00:52:27;;;;;;;15.95;13.55;;;;;;;-148.88;100.00;-17125.47;5023242;28;20163;-82
2023/07/06 00:55:05;;;;;;;13.88;12.07;;;;;;;-148.88;100.00;-17125.47;5042537;28;20109;-83
2023/07/06 00:57:41;;;;;;;13.50;11.68;;;;;;;-148.88;100.00;-17125.47;5025033;28;20037;-83
2023/07/06 01:00:25;;;;;;;14.48;11.77;;;;;;;-148.88;100.00;-17125.47;5042026;28;20021;-83
2023/07/06 01:02:57;;;;;;;14.23;11.73;;;;;;;-148.88;100.00;-17125.47;5020536;28;20033;-82
2023/07/06 01:05:39;;;;;;;13.65;10.77;;;;;;;-148.88;100.00;-17125.47;5024486;28;20044;-83
2023/07/06 01:08:25;;;;;;;11.18;9.98;;;;;;;-148.88;100.00;-17125.47;5042183;28;20464;-82
2023/07/06 01:11:04;;;;;;;10.98;9.30;;;;;;;-148.88;100.00;-17125.47;5041417;28;20034;-82
2023/07/06 01:13:39;;;;;;;11.85;9.52;;;;;;;-148.88;100.00;-17125.47;5022986;28;20112;-82
2023/07/06 01:16:37;;;;;;;10.75;8.88;;;;;;;-148.88;100.00;-17125.47;5041532;28;20033;-82
2023/07/06 01:19:25;;;;;;;12.32;9.10;;;;;;;-148.88;100.00;-17125.47;5022981;28;20029;-83
2023/07/06 01:22:17;;;;;;;10.45;8.68;;;;;;;-148.88;100.00;-17125.47;5040613;28;20032;-82
2023/07/06 01:25:10;;;;;;;10.30;8.82;;;;;;;-148.88;100.00;-17125.47;5023968;28;20021;-82
2023/07/06 01:27:58;;;;;;;13.07;9.98;;;;;;;-148.88;100.00;-17125.47;5021214;28;20029;-81
2023/07/06 01:31:02;;;;;;;11.27;10.07;;;;;;;-148.88;100.00;-17125.47;5040693;28;20036;-82
2023/07/06 01:34:02;;;;;;;12.85;9.88;;;;;;;-148.88;100.00;-17125.47;4963039;28;20038;-83
2023/07/06 01:37:00;;;;;;;15.43;11.00;;;;;;;-148.88;100.00;-17125.47;5022580;28;20352;-82
2023/07/06 01:39:28;;;;;;;13.90;10.50;;;;;;;-148.88;100.00;-17125.47;5039939;28;20036;-80
2023/07/06 01:42:31;;;;;;;11.73;10.23;;;;;;;-148.88;100.00;-17125.47;5022833;28;20025;-82
2023/07/06 01:45:01;;;;;;;14.40;11.88;;;;;;;-148.88;100.00;-17125.47;5024768;28;20037;-82
2023/07/06 01:47:34;;;;;;;13.77;11.50;;;;;;;-148.88;100.00;-17125.47;5020531;28;20033;-81
2023/07/06 01:50:14;;;;;;;18.70;13.05;;;;;;;-148.88;100.00;-17125.47;5022731;28;20470;-83
2023/07/06 01:53:31;;;;;;;17.17;13.38;;;;;;;-148.88;100.00;-17125.47;5025296;28;20128;-83
2023/07/06 01:56:05;;;;;;;16.65;14.35;;;;;;;-148.88;100.00;-17125.47;4989267;28;20125;-82
2023/07/06 01:58:53;;;;;;;24.50;14.32;;;;;;;-148.88;100.00;-17125.47;5022940;28;20472;-82
2023/07/06 02:01:46;;;;;;;23.83;16.88;;;;;;;-148.88;100.00;-17125.47;5040135;28;20032;-82
2023/07/06 02:04:20;;;;;;;21.50;16.45;;;;;;;-148.88;100.00;-17125.47;5037340;28;20028;-82
2023/07/06 02:07:09;;;;;;;23.90;18.45;;;;;;;-148.88;100.00;-17125.47;5021054;28;20053;-81
2023/07/06 02:09:57;;;;;;;24.90;19.95;;;;;;;-148.88;100.00;-17125.47;5039749;28;20373;-82
2023/07/06 02:12:42;;;;;;;27.83;21.63;;;;;;;-148.88;100.00;-17125.47;5011607;28;20065;-82
2023/07/06 02:15:21;;;;;;;26.80;20.38;;;;;;;-148.88;100.00;-17125.47;5020547;28;20029;-82
2023/07/06 02:17:57;;;;;;;27.38;21.63;;;;;;;-148.88;100.00;-17125.47;5021722;28;20072;-82
2023/07/06 02:20:47;;;;;;;30.85;22.98;;;;;;;-148.88;100.00;-17125.47;5022749;28;20028;-83
2023/07/06 02:23:18;;;;;;;29.70;22.73;;;;;;;-148.88;100.00;-17125.47;5024736;28;20022;-83
2023/07/06 02:25:53;;;;;;;31.60;23.58;;;;;;;-148.88;100.00;-17125.47;5024021;28;20087;-83
2023/07/06 02:28:28;;;;;;;30.08;23.63;;;;;;;-148.88;100.00;-17125.47;5021578;28;20516;-82
2023/07/06 02:31:05;;;;;;;32.15;24.23;;;;;;;-148.88;100.00;-17125.47;5022784;28;20476;-82
2023/07/06 02:33:43;;;;;;;32.13;24.25;;;;;;;-148.88;100.00;-17125.47;5039137;28;20087;-82
2023/07/06 02:36:21;;;;;;;33.35;25.00;;;;;;;-148.88;100.00;-17125.47;5021450;28;20026;-82
2023/07/06 02:38:49;;;;;;;33.78;24.75;;;;;;;-148.88;100.00;-17125.47;5039199;28;20033;-82
2023/07/06 02:41:22;;;;;;;35.25;26.77;;;;;;;-148.88;100.00;-17125.47;5036924;28;20446;-82
2023/07/06 02:43:54;;;;;;;38.20;27.65;;;;;;;-148.88;100.00;-17125.47;5020472;28;20401;-83
2023/07/06 02:46:30;;;;;;;36.00;27.20;;;;;;;-148.88;100.00;-17125.47;5022984;28;20033;-81
2023/07/06 02:48:58;;;;;;;35.88;26.70;;;;;;;-148.88;100.00;-17125.47;5032859;28;20069;-82
2023/07/06 02:51:40;;;;;;;39.28;29.35;;;;;;;-148.88;100.00;-17125.47;5050820;28;20029;-82
2023/07/06 02:54:24;;;;;;;32.30;26.65;;;;;;;-148.88;100.00;-17125.47;5028966;28;20029;-83
2023/07/06 02:56:50;;;;;;;37.15;27.13;;;;;;;-148.88;100.00;-17125.47;5020866;28;20032;-81
2023/07/06 02:59:39;;;;;;;42.05;29.88;;;;;;;-148.88;100.00;-17125.47;5019565;28;20124;-82
2023/07/06 03:02:13;;;;;;;40.42;29.35;;;;;;;-148.88;100.00;-17125.47;5020426;28;20025;-82
2023/07/06 03:04:42;;;;;;;38.53;28.83;;;;;;;-148.88;100.00;-17125.47;5020381;28;20026;-82
2023/07/06 03:07:23;;;;;;;35.70;29.15;;;;;;;-148.88;100.00;-17125.47;5038136;28;20033;-82
2023/07/06 03:09:51;;;;;;;40.90;28.80;;;;;;;-148.88;100.00;-17125.47;5019825;28;20053;-82
2023/07/06 03:12:23;;;;;;;41.80;28.58;;;;;;;-148.88;100.00;-17125.47;5037745;28;20025;-82
2023/07/06 03:15:16;;;;;;;40.15;29.20;;;;;;;-148.88;100.00;-17125.47;5020709;28;20032;-82
2023/07/06 03:17:51;;;;;;;41.67;29.63;;;;;;;-148.88;100.00;-17125.47;5037481;28;20037;-82
2023/07/06 03:20:23;;;;;;;39.85;29.15;;;;;;;-148.88;100.00;-17125.47;5017842;28;20029;-82
2023/07/06 03:22:53;;;;;;;42.10;31.50;;;;;;;-148.88;100.00;-17125.47;5019483;28;20052;-82
2023/07/06 03:25:30;;;;;;;41.65;30.45;;;;;;;-148.88;100.00;-17125.47;5021566;28;20496;-82
2023/07/06 03:27:59;;;;;;;44.58;30.23;;;;;;;-148.88;100.00;-17125.47;5021203;28;20032;-82
2023/07/06 03:30:43;;;;;;;40.08;29.65;;;;;;;-148.88;100.00;-17125.47;5035954;28;20037;-83
2023/07/06 03:33:09;;;;;;;39.10;29.65;;;;;;;-148.88;100.00;-17125.47;5018955;28;20495;-83
2023/07/06 03:35:34;;;;;;;41.60;29.60;;;;;;;-148.88;100.00;-17125.47;5020027;28;20061;-81
2023/07/06 03:38:08;;;;;;;43.22;30.75;;;;;;;-148.88;100.00;-17125.47;5037516;28;20193;-83
2023/07/06 03:40:38;;;;;;;41.50;30.40;;;;;;;-148.88;100.00;-17125.47;5018750;28;20026;-81
2023/07/06 03:43:04;;;;;;;43.00;29.35;;;;;;;-148.88;100.00;-17125.47;5020291;28;20025;-81
2023/07/06 03:45:40;;;;;;;43.25;29.95;;;;;;;-148.88;100.00;-17125.47;5038666;28;20028;-82
2023/07/06 03:48:17;;;;;;;39.15;29.20;;;;;;;-148.88;100.00;-17125.47;5018443;28;20049;-82
2023/07/06 03:50:47;;;;;;;41.30;30.17;;;;;;;-148.88;100.00;-17125.47;5037279;28;20025;-81
2023/07/06 03:53:15;;;;;;;42.22;30.15;;;;;;;-148.88;100.00;-17125.47;5037092;28;20022;-82
2023/07/06 03:55:40;;;;;;;41.33;30.25;;;;;;;-148.88;100.00;-17125.47;5018588;28;20115;-81
2023/07/06 03:58:14;;;;;;;40.13;28.88;;;;;;;-148.88;100.00;-17125.47;5036150;28;20041;-82
2023/07/06 04:00:49;;;;;;;38.53;28.95;;;;;;;-148.88;100.00;-17125.47;5019189;28;20037;-82
2023/07/06 04:03:14;;;;;;;41.13;30.02;;;;;;;-148.88;100.00;-17125.47;5022526;28;20029;-81
2023/07/06 04:05:47;;;;;;;46.20;29.70;;;;;;;-148.88;100.00;-17125.47;5040772;28;20032;-82
2023/07/06 04:08:16;;;;;;;43.42;30.38;;;;;;;-148.88;100.00;-17125.47;5021166;28;20472;-82
2023/07/06 04:10:42;;;;;;;43.70;31.40;;;;;;;-148.88;100.00;-17125.47;5021470;28;20046;-84
2023/07/06 04:13:13;;;;;;;43.95;31.13;;;;;;;-148.88;100.00;-17125.47;5022624;28;20022;-82
2023/07/06 04:15:54;;;;;;;46.08;32.08;;;;;;;-148.88;100.00;-17125.47;5022128;28;20087;-82
2023/07/06 04:18:31;;;;;;;;;;;;;;;;;;;;;
2023/07/06 04:21:06;;;;;;;43.85;30.75;;;;;;;-148.88;100.00;-17125.47;5040642;28;20028;-81
2023/07/06 04:23:40;;;;;;;44.25;30.05;;;;;;;-148.88;100.00;-17125.47;5021568;28;20026;-81
2023/07/06 04:26:05;;;;;;;42.03;29.70;;;;;;;-148.88;100.00;-17125.47;5025994;28;20472;-81
2023/07/06 04:28:42;;;;;;;40.03;28.30;;;;;;;-148.88;100.00;-17125.47;5041718;28;20074;-82
2023/07/06 04:31:11;;;;;;;39.92;27.67;;;;;;;-148.88;100.00;-17125.47;5040099;28;20025;-82
2023/07/06 04:33:40;;;;;;;37.60;26.75;;;;;;;-148.88;100.00;-17125.47;5020155;28;20026;-82
2023/07/06 04:36:11;;;;;;;39.65;27.15;;;;;;;-148.88;100.00;-17125.47;5019603;28;20032;-84
2023/07/06 04:38:39;;;;;;;36.47;25.48;;;;;;;-148.88;100.00;-17125.47;5019988;28;20032;-82
2023/07/06 04:41:08;;;;;;;33.72;23.05;;;;;;;-148.88;100.00;-17125.47;5020592;28;20044;-82
2023/07/06 04:43:52;;;;;;;34.35;24.73;;;;;;;-148.88;100.00;-17125.47;5020205;28;20120;-82
2023/07/06 04:46:21;;;;;;;36.22;24.60;;;;;;;-148.88;100.00;-17125.47;5020448;28;20523;-83
2023/07/06 04:48:55;;;;;;;38.13;22.75;;;;;;;-148.88;100.00;-17125.47;5020891;28;20033;-83
2023/07/06 04:51:21;;;;;;;33.03;22.27;;;;;;;-148.88;100.00;-17125.47;5038061;28;20037;-82
2023/07/06 04:53:49;;;;;;;31.90;22.17;;;;;;;-148.88;100.00;-17125.47;5037141;28;20031;-82
2023/07/06 04:56:21;;;;;;;32.33;22.65;;;;;;;-148.88;100.00;-17125.47;5019555;28;20030;-83
2023/07/06 04:58:56;;;;;;;32.97;22.08;;;;;;;-148.88;100.00;-17125.47;5019649;28;20029;-83
2023/07/06 05:01:36;;;;;;;;;;;;;;;;;;;;;
2023/07/06 05:04:19;;;;;;;29.80;20.67;;;;;;;-148.88;100.00;-17125.47;5037307;28;20383;-83
2023/07/06 05:06:57;;;;;;;28.77;19.30;;;;;;;-148.88;100.00;-17125.47;5020504;28;20083;-83
2023/07/06 05:09:36;;;;;;;29.42;21.33;;;;;;;-148.88;100.00;-17125.47;5015279;28;20026;-83
2023/07/06 05:12:17;;;;;;;26.55;18.67;;;;;;;-148.88;100.00;-17125.47;5021761;28;20084;-82
2023/07/06 05:14:48;;;;;;;26.48;17.83;;;;;;;-148.88;100.00;-17125.47;5018393;28;20022;-83
2023/07/06 05:17:24;;;;;;;23.45;17.02;;;;;;;-148.88;100.00;-17125.47;5020804;28;20024;-83
2023/07/06 05:19:55;;;;;;;24.08;16.15;;;;;;;-148.88;100.00;-17125.47;5043526;28;20476;-82
2023/07/06 05:22:23;;;;;;;27.65;15.90;;;;;;;-148.88;100.00;-17125.47;5027040;28;20033;-84
2023/07/06 05:25:04;;;;;;;24.15;15.48;;;;;;;-148.88;100.00;-17125.47;5045682;28;20021;-83
2023/07/06 05:27:56;;;;;;;;;;;;;;;;;;;;;
2023/07/06 05:30:37;;;;;;;23.05;14.70;;;;;;;-148.88;100.00;-17125.47;5045645;28;20097;-81
2023/07/06 05:33:20;;;;;;;22.70;14.50;;;;;;;-148.88;100.00;-17125.47;5044681;28;20449;-82
2023/07/06 05:36:07;;;;;;;20.30;12.98;;;;;;;-148.88;100.00;-17125.47;5034129;28;20061;-80
2023/07/06 05:38:40;;;;;;;21.15;13.68;;;;;;;-148.88;100.00;-17125.47;5020424;28;20037;-79
2023/07/06 05:41:54;;;;;;;17.77;12.38;;;;;;;-148.88;100.00;-17125.47;5035558;28;20021;-82
2023/07/06 05:44:03;;;;;;;21.40;11.68;;;;;;;-148.88;100.00;-17125.47;5038431;28;20089;-83
2023/07/06 05:49:31;;;;;;;15.00;10.40;;;;;;;-148.88;100.00;-17125.47;5028851;28;20124;-81
2023/07/06 05:52:11;;;;;;;16.00;9.95;;;;;;;-148.88;100.00;-17125.47;5022267;28;20112;-82
2023/07/06 05:54:42;;;;;;;16.30;10.05;;;;;;;-148.88;100.00;-17125.47;5026297;28;20025;-81
2023/07/06 05:57:14;;;;;;;11.73;9.07;;;;;;;-148.88;100.00;-17125.47;5045953;28;20391;-82
2023/07/06 05:59:57;;;;;;;13.02;8.80;;;;;;;-148.88;100.00;-17125.47;5029591;28;20419;-83
2023/07/06 06:03:11;;;;;;;13.50;8.97;;;;;;;-148.88;100.00;-17125.47;5027802;28;20041;-83
2023/07/06 06:06:03;;;;;;;13.43;7.95;;;;;;;-148.88;100.00;-17125.47;4990968;28;20037;-83
2023/07/06 06:08:33;;;;;;;16.20;8.65;;;;;;;-148.88;100.00;-17125.47;5047853;28;20029;-83
2023/07/06 06:11:05;;;;;;;13.13;7.63;;;;;;;-148.88;100.00;-17125.47;5029715;28;20040;-82
2023/07/06 06:13:31;;;;;;;12.25;7.10;;;;;;;-148.88;100.00;-17125.47;5028728;28;20029;-83
2023/07/06 06:16:20;;;;;;;14.05;7.30;;;;;;;-148.88;100.00;-17125.47;5029539;28;20112;-83
2023/07/06 06:19:33;;;;;;;14.05;7.45;;;;;;;-148.88;100.00;-17125.47;5029478;28;20030;-83
2023/07/06 06:21:58;;;;;;;11.43;7.57;;;;;;;-148.88;100.00;-17125.47;5039699;28;20030;-83
2023/07/06 06:24:42;;;;;;;9.98;6.47;;;;;;;-148.88;100.00;-17125.47;5029752;28;20426;-84
2023/07/06 06:27:19;;;;;;;;;;;;;;;-148.88;100.00;-17125.47;5025836;28;20120;-82
2023/07/06 06:29:54;;;;;;;14.25;6.50;;;;;;;-148.88;100.00;-17125.47;5042134;28;19955;-83
2023/07/06 06:32:34;;;;;;;10.80;6.05;;;;;;;-148.88;100.00;-17125.47;5028824;28;20093;-83
2023/07/06 06:35:33;;;;;;;10.18;5.70;;;;;;;-148.88;100.00;-17125.47;5028699;28;20117;-83
2023/07/06 06:38:14;;;;;;;9.68;6.10;;;;;;;-148.88;100.00;-17125.47;5047095;28;20060;-83
2023/07/06 06:40:40;;;;;;;10.23;5.68;;;;;;;-148.88;100.00;-17125.47;5028696;28;20054;-83
2023/07/06 06:43:27;;;;;;;10.20;6.15;;;;;;;-148.88;100.00;-17125.47;5029849;28;20396;-82
2023/07/06 06:45:52;;;;;;;10.15;5.65;;;;;;;-148.88;100.00;-17125.47;5026890;28;20033;-85
2023/07/06 06:48:21;;;;;;;11.57;5.90;;;;;;;-148.88;100.00;-17125.47;5026861;28;20021;-83
2023/07/06 06:51:09;;;;;;;8.75;5.53;;;;;;;-148.88;100.00;-17125.47;5046697;28;20018;-84
2023/07/06 06:53:43;;;;;;;13.77;5.97;;;;;;;-148.88;100.00;-17125.47;5022890;28;20029;-83
2023/07/06 06:56:14;;;;;;;9.80;6.22;;;;;;;-148.88;100.00;-17125.47;5024080;28;20032;-83
2023/07/06 06:58:42;;;;;;;13.18;6.95;;;;;;;-148.88;100.00;-17125.47;5022164;28;20056;-85
2023/07/06 07:01:13;;;;;;;9.80;6.07;;;;;;;-148.88;100.00;-17125.47;5019687;28;20083;-85
2023/07/06 07:03:42;;;;;;;11.10;6.30;;;;;;;-148.88;100.00;-17125.47;5042713;28;20022;-85
2023/07/06 07:06:17;;;;;;;16.15;6.32;;;;;;;-148.88;100.00;-17125.47;5036346;28;20036;-84
2023/07/06 07:08:49;;;;;;;12.15;6.13;;;;;;;-148.88;100.00;-17125.47;5020080;28;20017;-84
2023/07/06 07:14:45;;;;;;;12.43;6.25;;;;;;;-148.88;100.00;-17125.47;5040419;28;20079;-84
2023/07/06 07:17:14;;;;;;;9.00;5.78;;;;;;;-148.88;100.00;-17125.47;5025067;28;20028;-85
2023/07/06 07:19:47;;;;;;;10.88;5.43;;;;;;;-148.88;100.00;-17125.47;5042616;28;20053;-84
2023/07/06 07:22:13;;;;;;;10.20;5.32;;;;;;;-148.88;100.00;-17125.47;5039333;28;20108;-86
2023/07/06 07:24:53;;;;;;;10.40;5.47;;;;;;;-148.88;100.00;-17125.47;5023332;28;20072;-85
2023/07/06 07:27:19;;;;;;;10.52;5.47;;;;;;;-148.88;100.00;-17125.47;5026370;28;20040;-85
2023/07/06 07:29:49;;;;;;;8.90;5.45;;;;;;;-148.88;100.00;-17125.47;5028754;28;20025;-86
2023/07/06 07:32:38;;;;;;;7.95;5.10;;;;;;;-148.88;100.00;-17125.47;5029906;28;20026;-86
2023/07/06 07:35:07;;;;;;;10.85;5.38;;;;;;;-148.88;100.00;-17125.47;5025135;28;20029;-84
2023/07/06 07:37:45;;;;;;;8.90;5.10;;;;;;;-148.88;100.00;-17125.47;5027558;28;20037;-84
2023/07/06 07:40:17;;;;;;;10.05;5.13;;;;;;;-148.88;100.00;-17125.47;5025798;28;20037;-84
2023/07/06 07:42:54;;;;;;;8.75;4.93;;;;;;;-148.88;100.00;-17125.47;5041152;28;20029;-84
2023/07/06 07:45:20;;;;;;;8.30;4.15;;;;;;;-148.88;99.96;-17125.47;5019397;28;20091;-85
2023/07/06 07:47:57;;;;;;;11.50;4.65;;;;;;;-148.88;99.40;-17125.47;5021185;28;20030;-85
2023/07/06 07:50:47;;;;;;;11.65;5.00;;;;;;;-148.88;99.43;-17125.47;5020684;28;20476;-86
2023/07/06 07:53:15;;;;;;;10.10;4.28;;;;;;;-148.88;99.89;-17125.47;5021715;28;20048;-86
2023/07/06 07:55:57;;;;;;;9.18;4.03;;;;;;;-148.88;97.76;-17125.47;5021432;28;20452;-86
2023/07/06 07:59:01;;;;;;;7.55;3.75;;;;;;;-148.88;97.62;-17125.47;5022046;28;20403;-86
2023/07/06 08:01:45;;;;;;;9.43;4.20;;;;;;;-148.88;97.68;-17125.47;5043067;28;20498;-86
2023/07/06 08:04:32;;;;;;;7.80;3.78;;;;;;;-148.88;96.15;-17125.47;5022773;28;20131;-86
2023/07/06 08:07:00;;;;;;;5.95;3.20;;;;;;;-148.88;93.99;-17125.47;5021254;28;20040;-86
2023/07/06 08:09:34;;;;;;;6.43;3.40;;;;;;;-148.88;93.99;-17125.47;5020652;28;20025;-86
2023/07/06 08:12:06;;;;;;;9.45;3.17;;;;;;;-148.88;91.25;-17125.47;5038127;28;20435;-86
2023/07/06 08:15:10;;;;;;;8.23;3.22;;;;;;;-148.88;89.15;-17125.47;5031685;28;20081;-85
2023/07/06 08:17:51;;;;;;;6.32;3.00;;;;;;;-148.88;91.24;-17125.47;5041421;28;20112;-85
2023/07/06 08:20:19;;;;;;;8.98;3.25;;;;;;;-148.88;91.68;-17125.47;5034120;28;20044;-87
2023/07/06 08:22:48;;;;;;;10.48;3.00;;;;;;;-148.88;93.04;-17125.47;5023918;28;20033;-87
2023/07/06 08:25:21;;;;;;;8.90;3.28;;;;;;;-148.88;91.34;-17125.47;5020595;28;20030;-87
2023/07/06 08:28:00;;;;;;;;;;;;;;;;;;;;;
2023/07/06 08:30:35;;;;;;;11.30;3.10;;;;;;;-148.88;90.26;-17125.47;5036663;28;20108;-87
2023/07/06 08:33:30;;;;;;;9.07;3.53;;;;;;;-148.88;92.34;-17125.47;5018299;28;20112;-87
2023/07/06 08:36:01;;;;;;;7.55;2.92;;;;;;;-148.88;92.99;-17125.47;5004152;28;20061;-86
2023/07/06 08:38:31;;;;;;;6.75;3.28;;;;;;;-148.88;88.40;-17125.47;5022777;28;20076;-86
2023/07/06 08:41:12;;;;;;;7.22;3.00;;;;;;;-148.88;86.74;-17125.47;5022540;28;20029;-86
2023/07/06 08:43:46;;;;;;;7.80;3.00;;;;;;;-148.88;86.57;-17125.47;5022203;28;20063;-84
2023/07/06 08:46:18;;;;;;;7.10;2.90;;;;;;;-148.88;85.61;-17125.47;5021663;28;20040;-84
2023/07/06 08:48:56;;;;;;;6.93;2.95;;;;;;;-148.88;84.76;-17125.47;5041388;28;20029;-85
2023/07/06 08:51:34;;;;;;;6.72;2.80;;;;;;;-148.88;82.08;-17125.47;5023663;28;20029;-86
2023/07/06 08:54:17;;;;;;;5.95;2.58;;;;;;;-148.88;84.27;-17125.47;5044028;28;20029;-86
2023/07/06 08:56:57;;;;;;;6.47;2.95;;;;;;;-148.88;86.91;-17125.47;5026213;28;20074;-85
2023/07/06 08:59:42;;;;;;;7.78;2.90;;;;;;;-148.88;85.33;-17125.47;5020987;28;20053;-83
2023/07/06 09:02:36;;;;;;;6.20;2.75;;;;;;;-148.88;84.59;-17125.47;5039862;28;20083;-84
2023/07/06 09:05:20;;;;;;;6.78;2.92;;;;;;;-148.88;83.59;-17125.47;5017364;28;20531;-84
2023/07/06 09:07:55;;;;;;;;;;;;;;;-148.88;83.43;-17125.47;5025138;28;20037;-85
2023/07/06 09:10:28;;;;;;;7.15;2.80;;;;;;;-148.88;83.06;-17125.47;5023498;28;19959;-83
2023/07/06 09:13:14;;;;;;;6.68;2.97;;;;;;;-148.88;80.86;-17125.47;5024344;28;20429;-85
2023/07/06 09:15:54;;;;;;;7.53;2.47;;;;;;;-148.88;80.40;-17125.47;5023669;28;20025;-86
2023/07/06 09:19:04;;;;;;;7.55;2.85;;;;;;;-148.88;77.99;-17125.47;5024681;28;20042;-84
2023/07/06 09:21:32;;;;;;;6.55;2.90;;;;;;;-148.88;81.06;-17125.47;5034527;28;20037;-83
2023/07/06 09:24:01;;;;;;;5.70;2.60;;;;;;;-148.88;78.02;-17125.47;5022830;28;20034;-85
2023/07/06 09:26:50;;;;;;;6.20;2.90;;;;;;;-148.88;78.33;-17125.47;5028404;28;20027;-84
2023/07/06 09:29:42;;;;;;;6.47;2.88;;;;;;;-148.88;79.37;-17125.47;5042093;28;20025;-84
2023/07/06 09:32:11;;;;;;;7.60;2.95;;;;;;;-148.88;75.11;-17125.47;5021236;28;20041;-85
2023/07/06 09:34:44;;;;;;;7.78;2.50;;;;;;;-148.88;74.44;-17125.47;5025978;28;20025;-84
2023/07/06 09:37:22;;;;;;;;;;;;;;;-148.88;71.35;-17125.47;5021224;28;20105;-83
2023/07/06 09:40:28;;;;;;;7.13;2.90;;;;;;;-148.88;74.13;-17125.47;5022968;28;20371;-85
2023/07/06 09:43:29;;;;;;;8.60;2.40;;;;;;;-148.88;75.72;-17125.47;5024712;28;20052;-83
2023/07/06 09:46:10;;;;;;;5.45;2.65;;;;;;;-148.88;74.43;-17125.47;5019480;28;20126;-83
2023/07/06 09:48:44;;;;;;;5.35;2.70;;;;;;;-148.88;72.58;-17125.47;5020630;28;20369;-83
2023/07/06 09:51:26;;;;;;;9.82;2.53;;;;;;;-148.88;73.71;-17125.47;5021144;28;20106;-83
2023/07/06 09:54:02;;;;;;;5.47;2.53;;;;;;;-148.88;71.29;-17125.47;5021506;28;20044;-83
2023/07/06 09:56:44;;;;;;;6.70;2.85;;;;;;;-148.88;76.75;-17125.47;5040699;28;20381;-84
2023/07/06 09:59:21;;;;;;;7.50;2.60;;;;;;;-148.88;69.76;-17125.47;5023491;28;20049;-84
2023/07/06 10:02:00;;;;;;;6.60;2.10;;;;;;;-148.88;69.17;-17125.47;5047038;28;20026;-85
2023/07/06 10:04:57;;;;;;;7.00;2.80;;;;;;;-148.88;66.90;-17125.47;5030021;28;20025;-85
2023/07/06 10:08:02;;;;;;;7.68;2.10;;;;;;;-148.88;69.31;-17125.47;5026932;28;20040;-84
2023/07/06 10:10:43;;;;;;;5.07;2.50;;;;;;;-148.88;66.29;-17125.47;5025865;28;20029;-83
2023/07/06 10:13:36;;;;;;;5.15;2.40;;;;;;;-148.88;67.66;-17125.47;5026958;28;20048;-84
2023/07/06 10:16:32;;;;;;;4.65;2.25;;;;;;;-148.88;64.83;-17125.47;5044392;28;20032;-83
2023/07/06 10:19:30;;;;;;;4.85;1.90;;;;;;;-148.88;62.90;-17125.47;5028071;28;20047;-83
2023/07/06 10:22:20;;;;;;;6.97;2.13;;;;;;;-148.88;63.30;-17125.47;5042478;28;20076;-84
2023/07/06 10:24:49;;;;;;;6.57;2.60;;;;;;;-148.88;62.45;-17125.47;5046255;28;20097;-84
2023/07/06 10:27:35;;;;;;;5.38;2.35;;;;;;;-148.88;56.98;-17125.47;5021294;28;20064;-85
2023/07/06 10:30:28;;;;;;;3.70;2.00;;;;;;;-148.88;59.73;-17125.47;5018682;28;20033;-84
2023/07/06 10:33:06;;;;;;;4.55;1.92;;;;;;;-148.88;56.70;-17125.47;5041076;28;20021;-83
2023/07/06 10:35:50;;;;;;;4.85;2.20;;;;;;;-148.88;57.39;-17125.47;5024789;28;20111;-85
2023/07/06 10:38:16;;;;;;;5.20;1.90;;;;;;;-148.88;60.72;-17125.47;5039155;28;20021;-85
2023/07/06 10:41:14;;;;;;;2.88;1.67;;;;;;;-148.88;57.56;-17125.47;5042022;28;20469;-84
2023/07/06 10:44:28;;;;;;;5.63;1.92;;;;;;;-148.88;57.62;-17125.47;5023944;28;20087;-86
2023/07/06 10:47:00;;;;;;;4.30;2.00;;;;;;;-148.88;56.57;-17125.47;5023646;28;20056;-86
2023/07/06 10:49:28;;;;;;;4.05;1.95;;;;;;;-148.88;53.38;-17125.47;5040689;28;20029;-86
2023/07/06 10:52:22;;;;;;;3.83;2.00;;;;;;;-148.88;56.30;-17125.47;5021757;28;20029;-85
2023/07/06 10:55:18;;;;;;;4.38;1.77;;;;;;;-148.88;54.50;-17125.47;5039598;28;20029;-86
2023/07/06 11:00:37;;;;;;;4.70;1.60;;;;;;;-148.88;53.00;-17125.47;5040326;22;20079;-74
2023/07/06 11:03:05;;;;;;;2.75;1.67;;;;;;;-148.88;52.31;-17125.47;5015623;28;20033;-74
2023/07/06 11:05:34;;;;;;;4.50;1.65;;;;;;;-148.88;55.74;-17125.47;5033349;28;20400;-74
2023/07/06 11:08:05;;;;;;;5.78;1.90;;;;;;;-148.88;52.36;-17125.47;5033339;28;20028;-74
2023/07/06 11:10:42;;;;;;;4.07;1.52;;;;;;;-148.88;54.59;-17125.47;5032646;28;20033;-74
2023/07/06 11:13:08;;;;;;;5.40;1.85;;;;;;;-148.88;53.16;-17125.47;5033235;28;20028;-74
2023/07/06 11:15:44;;;;;;;3.60;1.58;;;;;;;-148.88;49.57;-17125.47;5033404;28;20029;-74
2023/07/06 11:18:18;;;;;;;5.65;1.90;;;;;;;-148.88;49.67;-17125.47;4999185;28;20038;-74
2023/07/06 11:20:54;;;;;;;5.53;1.80;;;;;;;-148.88;51.55;-17125.47;5033155;28;20041;-74
2023/07/06 11:23:30;;;;;;;4.70;1.88;;;;;;;-148.88;46.74;-17125.47;5015326;28;20037;-74
2023/07/06 11:25:56;;;;;;;5.43;1.42;;;;;;;-148.88;50.26;-17125.47;5033497;28;20075;-75
2023/07/06 11:28:23;;;;;;;4.60;1.48;;;;;;;-148.88;47.41;-17125.47;5033175;28;20092;-74
2023/07/06 11:31:25;;;;;;;3.53;1.90;;;;;;;-148.88;49.83;-17125.47;5018087;28;20025;-75
2023/07/06 11:34:01;;;;;;;3.13;1.50;;;;;;;-148.88;50.46;-17125.47;5034749;28;20025;-75
2023/07/06 11:36:55;;;;;;;3.42;1.60;;;;;;;-148.88;53.75;-17125.47;5033555;28;20028;-74
2023/07/06 11:39:43;;;;;;;6.82;1.60;;;;;;;-148.88;53.71;-17125.47;5033178;28;20101;-74
2023/07/06 11:42:38;;;;;;;3.53;1.40;;;;;;;-148.88;53.76;-17125.47;5033189;28;20506;-74
2023/07/06 11:45:20;;;;;;;3.83;1.60;;;;;;;-148.88;52.22;-17125.47;5032892;28;20110;-74
2023/07/06 11:47:58;;;;;;;6.32;1.70;;;;;;;-148.88;53.97;-17125.47;5033158;28;20025;-74
2023/07/06 11:50:31;;;;;;;6.45;1.67;;;;;;;-148.88;53.43;-17125.47;5033129;28;20052;-74
2023/07/06 11:53:09;;;;;;;3.92;1.60;;;;;;;-148.88;52.90;-17125.47;5015094;28;20033;-75
2023/07/06 11:55:50;;;;;;;3.30;1.58;;;;;;;-148.88;52.10;-17125.47;5033040;28;20083;-74
2023/07/06 11:58:43;;;;;;;4.57;1.60;;;;;;;-148.88;50.18;-17125.47;5014864;28;20029;-74
2023/07/06 12:01:20;;;;;;;3.35;1.40;;;;;;;-148.88;50.95;-17125.47;5032961;28;20037;-74
2023/07/06 12:03:47;;;;;;;4.03;1.55;;;;;;;-148.88;48.74;-17125.47;5033002;28;20034;-75
2023/07/06 12:06:19;;;;;;;3.70;1.50;;;;;;;-148.88;45.56;-17125.47;5032726;28;20091;-74